Pagrindinis puslapis
METAR-TAF:

METAR-TAF

Oro uostai :

Clines Corners, Naujoji Meksika, Jungtinės Amerikos Valstijos

platuma: 35-00N, ilguma: 105-40W, Aukštis: 2160 m

Dabartinis oras

Ataskaita buvo paskelbta 27 minutes, ne 17:53 UTC
Vėjas 8 kt iš Vakarų/Šiaurės Vakarų
Temperatūra 23°C
Drėgmė 53%
Slėgis 1028 hPa
Matomumas: 16.1 km
Giedras dangus

METAR: KCQC 031753Z AUTO 29008KT 10SM CLR 23/13 A3035 RMK AO2 SLP180 T02330128 10233 20133 58006

Laikas: 12:20 (18:20 UTC)


TAF: trūkstamas

Orai ataskaitas ir orų prognozės (METAR, TAF).

turimą stotys yra geltonos ir raudonos taškus žemėlapyje.

Perkelti pele per norėdami pamatyti stoties vardą.

Tada spustelėkite, norėdami matyti oro stebėjimo ir prognozės.

Norėdami pakeisti žemėlapį: spustelėkite ant žalios mygtukų su juodo kryžiaus žemyn,; žalią mygtuką su brūkšneliu, jei norite nutolinti; arba žalių rodyklių gretimoms žemėlapius.


METAR-TAF: